Time;durP1;ratioP1;P1;durP2;ratioP2;P2;SDS_P1;SDS_P2;PMS_P1;PMS_P2;Temp;Humidity;BMP_temperature;BMP_pressure;BME280_temperature;BME280_humidity;BME280_pressure;Samples;Min_cycle;Max_cycle;Signal;HPM_P1;HPM_P2
2022/02/12 00:00:24;;;;;;;0.35;0.35;;;;;;;;;;1860835;76;26631;-47
2022/02/12 00:02:55;;;;;;;0.40;0.40;;;;;;;;;;1858688;76;26284;-50
2022/02/12 00:05:24;;;;;;;0.40;0.40;;;;;;;;;;1857931;76;26847;-51
2022/02/12 00:07:53;;;;;;;0.30;0.30;;;;;;;;;;1853546;76;26355;-47
2022/02/12 00:10:20;;;;;;;0.50;0.50;;;;;;;;;;1860692;76;26311;-47
2022/02/12 00:12:48;;;;;;;0.20;0.20;;;;;;;;;;1859694;76;26285;-49
2022/02/12 00:15:19;;;;;;;0.25;0.25;;;;;;;;;;1857870;76;26350;-51
2022/02/12 00:17:45;;;;;;;0.40;0.40;;;;;;;;;;1859415;76;26257;-50
2022/02/12 00:20:13;;;;;;;0.40;0.40;;;;;;;;;;1855385;76;26783;-48
2022/02/12 00:22:40;;;;;;;0.30;0.30;;;;;;;;;;1863597;76;26202;-48
2022/02/12 00:25:09;;;;;;;0.30;0.30;;;;;;;;;;1846335;76;26274;-47
2022/02/12 00:27:36;;;;;;;0.50;0.50;;;;;;;;;;1847416;76;26319;-48
2022/02/12 00:30:04;;;;;;;0.37;0.37;;;;;;;;;;1843752;76;26241;-50
2022/02/12 00:32:31;;;;;;;0.50;0.50;;;;;;;;;;1845554;76;26745;-47
2022/02/12 00:34:58;;;;;;;0.20;0.20;;;;;;;;;;1844623;76;26680;-47
2022/02/12 00:37:28;;;;;;;0.33;0.20;;;;;;;;;;1846446;76;26217;-47
2022/02/12 00:39:55;;;;;;;0.50;0.50;;;;;;;;;;1845182;76;26261;-48
2022/02/12 00:42:22;;;;;;;0.37;0.37;;;;;;;;;;1848313;76;26257;-47
2022/02/12 00:44:51;;;;;;;0.30;0.30;;;;;;;;;;1848732;76;26301;-50
2022/02/12 00:47:18;;;;;;;0.40;0.40;;;;;;;;;;1847016;76;26278;-51
2022/02/12 00:49:46;;;;;;;0.30;0.30;;;;;;;;;;1843734;76;25666;-53
2022/02/12 00:52:13;;;;;;;0.40;0.40;;;;;;;;;;1847174;76;26312;-47
2022/02/12 00:54:41;;;;;;;0.35;0.35;;;;;;;;;;1844566;76;26312;-51
2022/02/12 00:57:09;;;;;;;1.35;0.40;;;;;;;;;;1854299;76;26269;-49
2022/02/12 00:59:36;;;;;;;0.40;0.40;;;;;;;;;;1857095;76;26791;-49
2022/02/12 01:02:04;;;;;;;0.30;0.30;;;;;;;;;;1844420;76;26725;-49
2022/02/12 01:04:31;;;;;;;0.20;0.20;;;;;;;;;;1845076;76;26261;-51
2022/02/12 01:06:59;;;;;;;0.65;0.30;;;;;;;;;;1844787;76;26202;-46
2022/02/12 01:09:26;;;;;;;0.30;0.30;;;;;;;;;;1842538;76;26311;-52
2022/02/12 01:11:54;;;;;;;0.50;0.50;;;;;;;;;;1845921;76;26194;-47
2022/02/12 01:14:21;;;;;;;0.40;0.40;;;;;;;;;;1840905;76;26838;-47
2022/02/12 01:16:49;;;;;;;0.65;0.33;;;;;;;;;;1842218;76;26363;-48
2022/02/12 01:19:16;;;;;;;0.30;0.30;;;;;;;;;;1829187;76;26740;-47
2022/02/12 01:21:44;;;;;;;0.20;0.20;;;;;;;;;;1846514;76;26330;-49
2022/02/12 01:24:11;;;;;;;0.40;0.40;;;;;;;;;;1840874;76;26313;-47
2022/02/12 01:26:38;;;;;;;0.20;0.20;;;;;;;;;;1848432;76;26207;-46
2022/02/12 01:29:06;;;;;;;0.30;0.30;;;;;;;;;;1843491;76;26256;-49
2022/02/12 01:31:33;;;;;;;0.20;0.20;;;;;;;;;;1844119;76;26261;-50
2022/02/12 01:34:00;;;;;;;0.70;0.40;;;;;;;;;;1838284;76;26705;-48
2022/02/12 01:36:28;;;;;;;0.30;0.30;;;;;;;;;;1845991;76;26784;-47
2022/02/12 01:38:55;;;;;;;0.30;0.30;;;;;;;;;;1840317;76;26356;-51
2022/02/12 01:41:23;;;;;;;1.37;0.30;;;;;;;;;;1843299;76;26734;-53
2022/02/12 01:43:50;;;;;;;0.28;0.28;;;;;;;;;;1848264;76;26196;-48
2022/02/12 01:46:17;;;;;;;0.20;0.20;;;;;;;;;;1842101;76;26269;-47
2022/02/12 01:48:45;;;;;;;1.40;0.30;;;;;;;;;;1848368;76;26249;-46
2022/02/12 01:51:12;;;;;;;3.10;0.30;;;;;;;;;;1844314;76;26272;-47
2022/02/12 01:53:40;;;;;;;0.40;0.40;;;;;;;;;;1844669;76;26375;-47
2022/02/12 01:56:07;;;;;;;0.23;0.23;;;;;;;;;;1845355;76;26253;-48
2022/02/12 01:58:34;;;;;;;0.35;0.30;;;;;;;;;;1843859;76;26285;-47
2022/02/12 02:01:02;;;;;;;0.30;0.30;;;;;;;;;;1842903;76;26250;-51
2022/02/12 02:03:29;;;;;;;0.30;0.30;;;;;;;;;;1845306;76;26728;-48
2022/02/12 02:05:57;;;;;;;0.45;0.30;;;;;;;;;;1846395;76;26270;-53
2022/02/12 02:08:24;;;;;;;0.30;0.30;;;;;;;;;;1844472;76;26682;-49
2022/02/12 02:10:53;;;;;;;0.30;0.30;;;;;;;;;;1843542;76;26296;-49
2022/02/12 02:13:27;;;;;;;0.25;0.25;;;;;;;;;;1845902;76;26255;-47
2022/02/12 02:15:54;;;;;;;0.23;0.23;;;;;;;;;;1842807;76;26276;-47
2022/02/12 02:18:22;;;;;;;2.47;0.30;;;;;;;;;;1844311;76;26246;-50
2022/02/12 02:20:49;;;;;;;0.30;0.20;;;;;;;;;;1844980;76;26265;-48
2022/02/12 02:23:18;;;;;;;0.30;0.30;;;;;;;;;;1844850;76;26297;-52
2022/02/12 02:25:45;;;;;;;1.77;0.30;;;;;;;;;;1856237;76;26343;-51
2022/02/12 02:28:13;;;;;;;0.30;0.30;;;;;;;;;;1860619;76;26499;-48
2022/02/12 02:30:41;;;;;;;0.30;0.30;;;;;;;;;;1860098;75;26762;-48
2022/02/12 02:33:09;;;;;;;1.07;0.33;;;;;;;;;;1857672;76;27229;-48
2022/02/12 02:35:37;;;;;;;0.30;0.30;;;;;;;;;;1856281;76;26288;-48
2022/02/12 02:38:08;;;;;;;0.30;0.30;;;;;;;;;;1857760;76;26260;-47
2022/02/12 02:40:35;;;;;;;0.53;0.30;;;;;;;;;;1856043;76;26712;-48
2022/02/12 02:43:04;;;;;;;0.35;0.35;;;;;;;;;;1856723;76;26331;-51
2022/02/12 02:45:31;;;;;;;0.40;0.40;;;;;;;;;;1860482;76;26682;-47
2022/02/12 02:48:00;;;;;;;0.30;0.30;;;;;;;;;;1862519;76;26316;-48
2022/02/12 02:56:02;;;;;;;0.30;0.30;;;;;;;;;;1859015;76;26314;-47
2022/02/12 02:58:34;;;;;;;0.20;0.20;;;;;;;;;;1859285;76;26272;-47
2022/02/12 03:01:02;;;;;;;0.30;0.30;;;;;;;;;;1856977;76;26296;-51
2022/02/12 03:03:32;;;;;;;0.30;0.30;;;;;;;;;;1858151;76;26733;-49
2022/02/12 03:06:00;;;;;;;0.20;0.20;;;;;;;;;;1858540;76;26268;-51
2022/02/12 03:08:28;;;;;;;0.20;0.20;;;;;;;;;;1858724;76;26257;-51
2022/02/12 03:10:56;;;;;;;1.25;0.40;;;;;;;;;;1859620;76;26335;-49
2022/02/12 03:13:25;;;;;;;0.30;0.30;;;;;;;;;;1856355;76;26333;-47
2022/02/12 03:15:52;;;;;;;0.25;0.25;;;;;;;;;;1858671;76;26330;-50
2022/02/12 03:18:20;;;;;;;0.30;0.30;;;;;;;;;;1859126;76;26357;-47
2022/02/12 03:20:47;;;;;;;0.50;0.20;;;;;;;;;;1861974;76;26361;-52
2022/02/12 03:23:16;;;;;;;0.55;0.37;;;;;;;;;;1860305;75;26305;-47
2022/02/12 03:25:44;;;;;;;0.37;0.37;;;;;;;;;;1850118;76;26442;-52
2022/02/12 03:28:12;;;;;;;0.35;0.30;;;;;;;;;;1845031;76;26262;-49
2022/02/12 03:30:41;;;;;;;0.30;0.30;;;;;;;;;;1843664;76;26686;-50
2022/02/12 03:33:09;;;;;;;0.33;0.30;;;;;;;;;;1846561;76;26505;-47
2022/02/12 03:35:36;;;;;;;0.30;0.30;;;;;;;;;;1844423;76;26723;-50
2022/02/12 03:38:11;;;;;;;0.20;0.20;;;;;;;;;;1842336;76;26257;-47
2022/02/12 03:40:40;;;;;;;0.20;0.20;;;;;;;;;;1842848;76;26318;-47
2022/02/12 03:43:08;;;;;;;0.35;0.30;;;;;;;;;;1845265;76;26327;-48
2022/02/12 03:45:35;;;;;;;0.40;0.40;;;;;;;;;;1844609;76;25502;-48
2022/02/12 03:48:03;;;;;;;0.30;0.25;;;;;;;;;;1846438;76;26210;-46
2022/02/12 03:50:34;;;;;;;0.37;0.33;;;;;;;;;;1848223;76;26328;-46
2022/02/12 03:53:02;;;;;;;1.98;0.37;;;;;;;;;;1847284;76;26323;-47
2022/02/12 03:55:30;;;;;;;0.20;0.20;;;;;;;;;;1847685;76;26197;-46
2022/02/12 03:57:57;;;;;;;0.30;0.30;;;;;;;;;;1848361;76;26780;-47
2022/02/12 04:00:25;;;;;;;0.30;0.30;;;;;;;;;;1847201;76;26363;-46
2022/02/12 04:02:52;;;;;;;0.20;0.20;;;;;;;;;;1847573;76;26732;-48
2022/02/12 04:05:21;;;;;;;0.40;0.40;;;;;;;;;;1863896;76;26254;-48
2022/02/12 04:07:48;;;;;;;0.30;0.30;;;;;;;;;;1845441;76;26639;-52
2022/02/12 04:10:17;;;;;;;0.40;0.40;;;;;;;;;;1845965;76;26269;-47
2022/02/12 04:12:45;;;;;;;1.17;0.20;;;;;;;;;;1857659;76;26794;-46
2022/02/12 04:15:13;;;;;;;0.20;0.20;;;;;;;;;;1834291;76;26254;-50
2022/02/12 04:17:40;;;;;;;0.75;0.30;;;;;;;;;;1841554;76;26696;-49
2022/02/12 04:20:12;;;;;;;0.47;0.37;;;;;;;;;;1842842;76;26925;-48
2022/02/12 04:22:41;;;;;;;0.25;0.25;;;;;;;;;;1832502;76;26278;-49
2022/02/12 04:25:10;;;;;;;0.40;0.40;;;;;;;;;;1848908;76;26300;-46
2022/02/12 04:27:37;;;;;;;0.40;0.40;;;;;;;;;;1862847;76;26221;-46
2022/02/12 04:30:05;;;;;;;0.55;0.30;;;;;;;;;;1862155;76;26323;-47
2022/02/12 04:32:33;;;;;;;0.30;0.30;;;;;;;;;;1863021;76;26269;-46
2022/02/12 04:35:02;;;;;;;0.30;0.30;;;;;;;;;;1862220;76;26743;-46
2022/02/12 04:37:31;;;;;;;0.30;0.30;;;;;;;;;;1863333;76;26716;-46
2022/02/12 04:39:59;;;;;;;0.20;0.20;;;;;;;;;;1856090;76;26739;-46
2022/02/12 04:42:26;;;;;;;0.20;0.20;;;;;;;;;;1860582;76;26261;-52
2022/02/12 04:44:54;;;;;;;0.30;0.30;;;;;;;;;;1862896;76;26248;-50
2022/02/12 04:47:22;;;;;;;0.30;0.30;;;;;;;;;;1863448;76;26667;-45
2022/02/12 04:49:50;;;;;;;0.30;0.30;;;;;;;;;;1856529;76;26267;-48
2022/02/12 04:52:18;;;;;;;0.30;0.30;;;;;;;;;;1863582;76;26253;-47
2022/02/12 04:54:46;;;;;;;0.30;0.30;;;;;;;;;;1864004;76;26721;-51
2022/02/12 04:57:13;;;;;;;0.65;0.40;;;;;;;;;;1863459;76;26241;-46
2022/02/12 04:59:41;;;;;;;0.30;0.30;;;;;;;;;;1860698;76;26397;-47
2022/02/12 05:02:08;;;;;;;0.30;0.30;;;;;;;;;;1853622;76;27322;-51
2022/02/12 05:04:35;;;;;;;3.40;0.23;;;;;;;;;;1862837;76;26267;-49
2022/02/12 05:07:03;;;;;;;0.10;0.10;;;;;;;;;;1858019;76;26285;-53
2022/02/12 05:09:34;;;;;;;0.60;0.40;;;;;;;;;;1863194;76;26221;-46
2022/02/12 05:12:00;;;;;;;0.30;0.30;;;;;;;;;;1862426;76;26413;-50
2022/02/12 05:14:32;;;;;;;0.70;0.33;;;;;;;;;;1860606;76;26299;-48
2022/02/12 05:16:56;;;;;;;0.25;0.25;;;;;;;;;;1861407;76;26448;-48
2022/02/12 05:19:23;;;;;;;0.40;0.40;;;;;;;;;;1864185;76;26284;-46
2022/02/12 05:21:51;;;;;;;0.42;0.40;;;;;;;;;;1861895;76;26268;-47
2022/02/12 05:24:18;;;;;;;0.20;0.20;;;;;;;;;;1863497;76;26358;-49
2022/02/12 05:26:45;;;;;;;0.20;0.20;;;;;;;;;;1859728;76;26241;-46
2022/02/12 05:29:12;;;;;;;0.20;0.20;;;;;;;;;;1863018;76;26361;-46
2022/02/12 05:31:40;;;;;;;0.40;0.40;;;;;;;;;;1862713;76;26268;-46
2022/02/12 05:34:07;;;;;;;0.40;0.40;;;;;;;;;;1863914;76;26807;-52
2022/02/12 05:36:34;;;;;;;0.30;0.30;;;;;;;;;;1863212;76;26260;-45
2022/02/12 05:39:02;;;;;;;0.82;0.13;;;;;;;;;;1854924;76;26400;-47
2022/02/12 05:41:30;;;;;;;0.80;0.40;;;;;;;;;;1861282;76;26554;-51
2022/02/12 05:43:57;;;;;;;0.30;0.30;;;;;;;;;;1863098;75;26257;-49
2022/02/12 05:46:24;;;;;;;2.08;0.33;;;;;;;;;;1863554;76;26288;-47
2022/02/12 05:48:51;;;;;;;1.75;0.25;;;;;;;;;;1863382;76;26273;-49
2022/02/12 05:51:21;;;;;;;0.65;0.40;;;;;;;;;;1861593;76;26284;-49
2022/02/12 05:53:48;;;;;;;0.40;0.40;;;;;;;;;;1859012;76;26332;-50
2022/02/12 05:56:15;;;;;;;0.50;0.50;;;;;;;;;;1858055;76;26256;-47
2022/02/12 05:58:42;;;;;;;0.40;0.40;;;;;;;;;;1859854;76;26252;-51
2022/02/12 06:01:10;;;;;;;0.40;0.40;;;;;;;;;;1858784;76;26284;-46
2022/02/12 06:03:38;;;;;;;1.70;0.35;;;;;;;;;;1859442;76;26534;-49
2022/02/12 06:06:05;;;;;;;0.42;0.42;;;;;;;;;;1859588;75;26287;-51
2022/02/12 06:08:33;;;;;;;0.55;0.30;;;;;;;;;;1856911;76;26308;-49
2022/02/12 06:11:01;;;;;;;1.17;0.53;;;;;;;;;;1858473;76;26745;-51
2022/02/12 06:13:29;;;;;;;2.55;0.60;;;;;;;;;;1858639;76;26575;-49
2022/02/12 06:15:56;;;;;;;4.00;0.90;;;;;;;;;;1861238;76;26267;-48
2022/02/12 06:18:24;;;;;;;5.20;1.00;;;;;;;;;;1859095;76;26330;-47
2022/02/12 06:20:51;;;;;;;7.28;0.82;;;;;;;;;;1857671;76;26316;-51
2022/02/12 06:23:21;;;;;;;2.12;0.70;;;;;;;;;;1855107;76;26748;-48
2022/02/12 06:25:49;;;;;;;2.67;0.70;;;;;;;;;;1855860;76;26277;-49
2022/02/12 06:28:16;;;;;;;2.83;0.70;;;;;;;;;;1860663;76;26382;-49
2022/02/12 06:30:44;;;;;;;5.85;0.70;;;;;;;;;;1855498;76;26310;-49
2022/02/12 06:33:11;;;;;;;1.90;0.95;;;;;;;;;;1859285;76;26378;-51
2022/02/12 06:35:38;;;;;;;1.98;0.60;;;;;;;;;;1861388;75;26288;-46
2022/02/12 06:38:07;;;;;;;6.55;0.98;;;;;;;;;;1859340;76;26202;-44
2022/02/12 06:40:34;;;;;;;4.55;0.60;;;;;;;;;;1860354;76;26343;-42
2022/02/12 06:43:03;;;;;;;3.05;0.75;;;;;;;;;;1860656;76;26316;-45
2022/02/12 06:45:32;;;;;;;0.80;0.60;;;;;;;;;;1865176;76;26615;-51
2022/02/12 06:48:00;;;;;;;2.35;0.60;;;;;;;;;;1858813;76;26779;-52
2022/02/12 06:50:27;;;;;;;1.90;0.65;;;;;;;;;;1860514;76;26288;-51
2022/02/12 06:52:54;;;;;;;1.95;0.60;;;;;;;;;;1860868;76;26292;-48
2022/02/12 06:55:21;;;;;;;1.95;0.70;;;;;;;;;;1855866;75;26293;-51
2022/02/12 06:57:50;;;;;;;1.75;0.88;;;;;;;;;;1862369;76;26394;-47
2022/02/12 07:00:18;;;;;;;0.85;0.80;;;;;;;;;;1860033;76;26264;-51
2022/02/12 07:02:51;;;;;;;1.30;0.65;;;;;;;;;;1850615;76;26296;-47
2022/02/12 07:05:18;;;;;;;1.70;0.55;;;;;;;;;;1860070;76;26315;-48
2022/02/12 07:07:47;;;;;;;0.88;0.57;;;;;;;;;;1861658;76;26281;-50
2022/02/12 07:10:15;;;;;;;1.45;0.60;;;;;;;;;;1857968;76;26742;-49
2022/02/12 07:12:42;;;;;;;1.10;0.70;;;;;;;;;;1861583;76;26275;-47
2022/02/12 07:15:10;;;;;;;4.60;0.80;;;;;;;;;;1862387;76;26713;-50
2022/02/12 07:17:40;;;;;;;1.00;0.60;;;;;;;;;;1862272;76;26296;-46
2022/02/12 07:20:08;;;;;;;1.60;0.75;;;;;;;;;;1853072;76;26357;-46
2022/02/12 07:22:36;;;;;;;4.37;1.25;;;;;;;;;;1854679;76;26201;-49
2022/02/12 07:25:04;;;;;;;1.37;0.68;;;;;;;;;;1863082;76;26783;-46
2022/02/12 07:27:31;;;;;;;0.62;0.60;;;;;;;;;;1854052;76;26702;-49
2022/02/12 07:29:59;;;;;;;1.22;0.65;;;;;;;;;;1843295;76;26291;-49
2022/02/12 07:32:26;;;;;;;0.90;0.60;;;;;;;;;;1843280;76;26247;-48
2022/02/12 07:34:54;;;;;;;1.12;0.85;;;;;;;;;;1846697;76;26257;-49
2022/02/12 07:37:21;;;;;;;0.53;0.53;;;;;;;;;;1837963;76;27146;-48
2022/02/12 07:39:49;;;;;;;1.72;0.70;;;;;;;;;;1851329;76;26266;-47
2022/02/12 07:42:16;;;;;;;0.68;0.68;;;;;;;;;;1845509;76;26265;-46
2022/02/12 07:44:43;;;;;;;3.05;0.55;;;;;;;;;;1846818;76;26281;-50
2022/02/12 07:47:11;;;;;;;1.35;0.72;;;;;;;;;;1847744;76;26274;-46
2022/02/12 07:49:38;;;;;;;0.90;0.60;;;;;;;;;;1831184;76;26250;-46
2022/02/12 07:52:06;;;;;;;1.17;0.68;;;;;;;;;;1839440;76;26322;-52
2022/02/12 07:54:33;;;;;;;4.05;0.70;;;;;;;;;;1843037;76;26881;-46
2022/02/12 07:57:01;;;;;;;0.80;0.80;;;;;;;;;;1845373;76;26300;-54
2022/02/12 07:59:28;;;;;;;4.80;0.80;;;;;;;;;;1842011;76;26272;-53
2022/02/12 08:01:55;;;;;;;1.20;0.85;;;;;;;;;;1841389;76;26273;-55
2022/02/12 08:04:23;;;;;;;1.27;0.80;;;;;;;;;;1847718;76;26889;-48
2022/02/12 08:07:37;;;;;;;0.68;0.68;;;;;;;;;;1842622;76;26347;-48
2022/02/12 08:09:19;;;;;;;0.60;0.60;;;;;;;;;;1817087;76;26395;-42
2022/02/12 08:11:47;;;;;;;0.70;0.70;;;;;;;;;;1844137;76;26273;-42
2022/02/12 08:14:15;;;;;;;1.85;0.80;;;;;;;;;;1844746;76;26588;-40
2022/02/12 08:16:42;;;;;;;2.12;0.80;;;;;;;;;;1843202;76;26226;-46
2022/02/12 08:19:09;;;;;;;0.60;0.60;;;;;;;;;;1839418;76;26320;-45
2022/02/12 08:21:36;;;;;;;0.70;0.70;;;;;;;;;;1842798;76;26252;-42
2022/02/12 08:24:04;;;;;;;2.25;0.60;;;;;;;;;;1847391;76;26218;-43
2022/02/12 08:26:31;;;;;;;0.62;0.60;;;;;;;;;;1837304;76;26377;-44
2022/02/12 08:28:58;;;;;;;0.93;0.80;;;;;;;;;;1847978;76;26345;-42
2022/02/12 08:31:26;;;;;;;2.15;0.68;;;;;;;;;;1848809;76;27126;-45
2022/02/12 08:33:53;;;;;;;0.85;0.68;;;;;;;;;;1841944;76;26268;-44
2022/02/12 08:36:20;;;;;;;1.75;0.70;;;;;;;;;;1849279;76;26293;-46
2022/02/12 08:38:47;;;;;;;0.70;0.70;;;;;;;;;;1838847;76;26234;-50
2022/02/12 08:41:15;;;;;;;1.15;0.70;;;;;;;;;;1848577;76;26254;-47
2022/02/12 08:43:43;;;;;;;1.50;0.65;;;;;;;;;;1845066;76;26359;-48
2022/02/12 08:46:11;;;;;;;3.87;0.75;;;;;;;;;;1848441;76;26277;-46
2022/02/12 08:48:38;;;;;;;1.77;0.50;;;;;;;;;;1847592;76;26230;-48
2022/02/12 08:51:08;;;;;;;5.33;0.70;;;;;;;;;;1846395;76;27201;-45
2022/02/12 08:53:35;;;;;;;0.53;0.53;;;;;;;;;;1841254;76;26293;-44
2022/02/12 08:56:02;;;;;;;2.22;0.60;;;;;;;;;;1844268;76;26268;-48
2022/02/12 08:58:30;;;;;;;1.75;0.75;;;;;;;;;;1843690;76;26253;-46
2022/02/12 09:00:57;;;;;;;1.65;0.90;;;;;;;;;;1844290;76;26332;-43
2022/02/12 09:03:24;;;;;;;2.85;0.80;;;;;;;;;;1840549;76;26293;-45
2022/02/12 09:05:51;;;;;;;0.95;0.70;;;;;;;;;;1845108;76;26217;-47
2022/02/12 09:08:19;;;;;;;0.95;0.65;;;;;;;;;;1844553;76;26779;-45
2022/02/12 09:10:47;;;;;;;0.50;0.50;;;;;;;;;;1844727;76;26660;-47
2022/02/12 09:13:14;;;;;;;1.72;0.90;;;;;;;;;;1844119;76;26356;-46
2022/02/12 09:15:42;;;;;;;2.45;0.70;;;;;;;;;;1843554;76;26262;-45
2022/02/12 09:18:09;;;;;;;1.10;0.75;;;;;;;;;;1843305;76;26308;-42
2022/02/12 09:20:37;;;;;;;1.27;0.72;;;;;;;;;;1845442;76;26262;-43
2022/02/12 09:23:05;;;;;;;2.10;0.53;;;;;;;;;;1831215;76;26292;-42
2022/02/12 09:25:32;;;;;;;1.77;0.78;;;;;;;;;;1844010;76;26264;-48
2022/02/12 09:28:00;;;;;;;0.75;0.68;;;;;;;;;;1848502;76;26237;-46
2022/02/12 09:30:27;;;;;;;0.50;0.50;;;;;;;;;;1842842;76;26304;-50
2022/02/12 09:32:56;;;;;;;0.57;0.57;;;;;;;;;;1854378;76;26319;-44
2022/02/12 09:35:24;;;;;;;0.82;0.60;;;;;;;;;;1844244;76;26362;-50
2022/02/12 09:37:52;;;;;;;1.07;0.50;;;;;;;;;;1847442;76;26286;-44
2022/02/12 09:40:19;;;;;;;0.82;0.70;;;;;;;;;;1846259;76;27142;-45
2022/02/12 09:42:50;;;;;;;3.60;0.50;;;;;;;;;;1843459;76;26194;-45
2022/02/12 09:45:15;;;;;;;0.55;0.55;;;;;;;;;;1843623;76;26904;-45
2022/02/12 09:47:45;;;;;;;3.20;0.60;;;;;;;;;;1844253;76;26328;-44
2022/02/12 09:50:13;;;;;;;0.60;0.60;;;;;;;;;;1844693;76;26710;-40
2022/02/12 09:52:45;;;;;;;2.08;0.68;;;;;;;;;;1844622;76;26836;-42
2022/02/12 09:55:12;;;;;;;0.85;0.45;;;;;;;;;;1844331;76;26301;-44
2022/02/12 09:57:39;;;;;;;0.55;0.55;;;;;;;;;;1840231;76;26339;-44
2022/02/12 10:00:09;;;;;;;0.50;0.50;;;;;;;;;;1837655;76;21690;-43
2022/02/12 10:02:36;;;;;;;0.50;0.50;;;;;;;;;;1844259;76;26319;-42
2022/02/12 10:05:22;;;;;;;0.72;0.70;;;;;;;;;;1845254;76;26666;-40
2022/02/12 10:07:53;;;;;;;0.60;0.60;;;;;;;;;;1843494;76;26804;-45
2022/02/12 10:10:21;;;;;;;0.60;0.60;;;;;;;;;;1844618;76;26311;-42
2022/02/12 10:12:49;;;;;;;0.60;0.60;;;;;;;;;;1845403;76;26320;-45
2022/02/12 10:15:29;;;;;;;0.82;0.60;;;;;;;;;;1847133;76;26257;-42
2022/02/12 10:17:57;;;;;;;0.53;0.53;;;;;;;;;;1846264;76;26941;-50
2022/02/12 10:20:28;;;;;;;0.60;0.60;;;;;;;;;;1842335;76;26278;-47
2022/02/12 10:23:03;;;;;;;0.55;0.55;;;;;;;;;;1844704;76;26281;-45
2022/02/12 10:25:31;;;;;;;0.42;0.42;;;;;;;;;;1838447;76;26241;-48
2022/02/12 10:27:58;;;;;;;0.93;0.60;;;;;;;;;;1831765;76;26720;-45
2022/02/12 10:30:26;;;;;;;1.02;0.75;;;;;;;;;;1843770;76;26934;-46
2022/02/12 10:32:58;;;;;;;1.30;0.78;;;;;;;;;;1844364;76;26870;-48
2022/02/12 10:35:25;;;;;;;0.47;0.47;;;;;;;;;;1838851;76;26285;-50
2022/02/12 10:37:58;;;;;;;0.70;0.50;;;;;;;;;;1841736;76;26875;-52
2022/02/12 10:40:23;;;;;;;1.25;0.70;;;;;;;;;;1842254;76;26305;-45
2022/02/12 10:42:51;;;;;;;0.70;0.70;;;;;;;;;;1847139;76;26211;-45
2022/02/12 10:45:19;;;;;;;2.02;0.70;;;;;;;;;;1846209;76;26328;-50
2022/02/12 10:47:47;;;;;;;0.62;0.62;;;;;;;;;;1844276;76;26854;-50
2022/02/12 10:50:15;;;;;;;0.75;0.70;;;;;;;;;;1845701;76;26288;-48
2022/02/12 10:52:49;;;;;;;0.80;0.80;;;;;;;;;;1844768;76;26272;-44
2022/02/12 10:55:36;;;;;;;0.72;0.72;;;;;;;;;;1846633;76;26292;-44
2022/02/12 10:58:08;;;;;;;0.85;0.78;;;;;;;;;;1828038;76;26957;-48
2022/02/12 11:00:37;;;;;;;0.72;0.60;;;;;;;;;;1833025;76;26262;-45
2022/02/12 11:03:12;;;;;;;0.53;0.53;;;;;;;;;;1847902;76;26351;-47
2022/02/12 11:05:46;;;;;;;0.62;0.50;;;;;;;;;;1844275;76;26781;-44
2022/02/12 11:08:13;;;;;;;1.50;0.60;;;;;;;;;;1842167;76;26325;-47
2022/02/12 11:10:42;;;;;;;0.60;0.60;;;;;;;;;;1841580;76;26245;-47
2022/02/12 11:13:10;;;;;;;1.05;0.80;;;;;;;;;;1837088;76;26328;-45
2022/02/12 11:15:37;;;;;;;0.75;0.60;;;;;;;;;;1839833;76;26205;-44
2022/02/12 11:18:12;;;;;;;0.60;0.60;;;;;;;;;;1838655;76;25696;-49
2022/02/12 11:20:40;;;;;;;0.50;0.50;;;;;;;;;;1832152;76;26273;-50
2022/02/12 11:23:24;;;;;;;0.60;0.60;;;;;;;;;;1843699;76;26767;-47
2022/02/12 11:25:52;;;;;;;1.07;0.60;;;;;;;;;;1846020;76;26260;-45
2022/02/12 11:28:21;;;;;;;0.62;0.62;;;;;;;;;;1843099;76;26696;-47
2022/02/12 11:30:48;;;;;;;0.60;0.60;;;;;;;;;;1842844;76;26904;-46
2022/02/12 11:33:19;;;;;;;0.70;0.70;;;;;;;;;;1843945;76;26258;-48
2022/02/12 11:36:05;;;;;;;0.50;0.50;;;;;;;;;;1848045;76;26198;-46
2022/02/12 11:38:34;;;;;;;0.55;0.55;;;;;;;;;;1847396;76;26264;-45
2022/02/12 11:41:15;;;;;;;0.60;0.60;;;;;;;;;;1843056;76;26313;-50
2022/02/12 11:43:44;;;;;;;0.60;0.60;;;;;;;;;;1796305;76;26726;-46
2022/02/12 11:46:11;;;;;;;0.57;0.57;;;;;;;;;;1848688;76;26717;-45
2022/02/12 11:48:39;;;;;;;0.72;0.55;;;;;;;;;;1850558;76;26248;-45
2022/02/12 11:51:07;;;;;;;0.72;0.72;;;;;;;;;;1838169;76;26327;-45
2022/02/12 11:53:39;;;;;;;0.70;0.70;;;;;;;;;;1841620;76;26273;-45
2022/02/12 11:56:17;;;;;;;0.50;0.50;;;;;;;;;;1845460;76;26281;-50
2022/02/12 11:58:46;;;;;;;0.55;0.55;;;;;;;;;;1845670;76;26831;-47
2022/02/12 12:01:38;;;;;;;1.37;0.60;;;;;;;;;;1846199;76;26757;-46
2022/02/12 12:04:03;;;;;;;0.93;0.60;;;;;;;;;;1843818;76;26728;-48
2022/02/12 12:06:31;;;;;;;0.98;0.57;;;;;;;;;;1853462;76;26755;-46
2022/02/12 12:09:00;;;;;;;0.55;0.55;;;;;;;;;;1844480;76;26348;-48
2022/02/12 12:11:27;;;;;;;1.00;0.40;;;;;;;;;;1841748;76;27070;-48
2022/02/12 12:13:58;;;;;;;0.70;0.70;;;;;;;;;;1847885;76;26293;-43
2022/02/12 12:16:28;;;;;;;2.05;0.50;;;;;;;;;;1847930;76;26659;-47
2022/02/12 12:18:52;;;;;;;0.70;0.70;;;;;;;;;;1831249;76;26340;-45
2022/02/12 12:21:20;;;;;;;0.68;0.60;;;;;;;;;;1841791;76;26284;-46
2022/02/12 12:23:55;;;;;;;1.52;0.60;;;;;;;;;;1848823;76;26343;-51
2022/02/12 12:26:27;;;;;;;1.40;0.60;;;;;;;;;;1839982;76;26250;-49
2022/02/12 12:31:38;;;;;;;1.07;0.50;;;;;;;;;;1843456;76;28180;-45
2022/02/12 12:34:08;;;;;;;0.93;0.50;;;;;;;;;;1848121;76;26296;-45
2022/02/12 12:36:38;;;;;;;0.60;0.60;;;;;;;;;;1842398;76;26254;-47
2022/02/12 12:39:09;;;;;;;0.78;0.70;;;;;;;;;;1846109;76;26359;-51
2022/02/12 12:41:39;;;;;;;0.60;0.50;;;;;;;;;;1842488;76;26302;-47
2022/02/12 12:44:16;;;;;;;0.60;0.60;;;;;;;;;;1842953;76;26341;-49
2022/02/12 12:46:44;;;;;;;0.40;0.40;;;;;;;;;;1847643;76;26280;-53
2022/02/12 12:49:13;;;;;;;0.40;0.40;;;;;;;;;;1847539;76;26729;-49
2022/02/12 12:51:44;;;;;;;0.75;0.50;;;;;;;;;;1845414;76;26234;-47
2022/02/12 12:54:11;;;;;;;0.68;0.53;;;;;;;;;;1826977;76;26320;-45
2022/02/12 12:56:39;;;;;;;0.70;0.60;;;;;;;;;;1847008;76;26206;-46
2022/02/12 12:59:08;;;;;;;0.60;0.60;;;;;;;;;;1847585;76;26567;-51
2022/02/12 13:01:36;;;;;;;0.55;0.55;;;;;;;;;;1839926;76;26849;-51
2022/02/12 13:04:04;;;;;;;1.15;0.68;;;;;;;;;;1840465;76;26234;-47
2022/02/12 13:06:31;;;;;;;0.60;0.60;;;;;;;;;;1847672;76;26340;-48
2022/02/12 13:09:00;;;;;;;0.60;0.60;;;;;;;;;;1833902;76;26301;-50
2022/02/12 13:11:28;;;;;;;0.80;0.60;;;;;;;;;;1845679;76;26380;-49
2022/02/12 13:14:04;;;;;;;0.50;0.50;;;;;;;;;;1841472;76;26355;-51
2022/02/12 13:16:35;;;;;;;0.70;0.68;;;;;;;;;;1843702;76;26316;-45
2022/02/12 13:19:03;;;;;;;0.50;0.50;;;;;;;;;;1837176;76;26840;-45
2022/02/12 13:21:31;;;;;;;0.60;0.60;;;;;;;;;;1842409;76;26293;-48
2022/02/12 13:24:03;;;;;;;0.85;0.75;;;;;;;;;;1848063;76;26732;-48
2022/02/12 13:26:31;;;;;;;0.68;0.68;;;;;;;;;;1829504;76;26285;-45
2022/02/12 13:28:59;;;;;;;1.32;0.80;;;;;;;;;;1826432;76;28303;-48
2022/02/12 13:31:26;;;;;;;0.70;0.70;;;;;;;;;;1858105;76;26562;-55
2022/02/12 13:33:57;;;;;;;0.57;0.57;;;;;;;;;;1863658;76;26312;-49
2022/02/12 13:36:24;;;;;;;0.65;0.65;;;;;;;;;;1862862;76;26261;-45
2022/02/12 13:38:52;;;;;;;1.72;0.70;;;;;;;;;;1863206;76;26264;-47
2022/02/12 13:41:19;;;;;;;0.50;0.50;;;;;;;;;;1864673;76;26281;-55
2022/02/12 13:43:48;;;;;;;1.12;0.70;;;;;;;;;;1861465;76;27738;-51
2022/02/12 13:46:16;;;;;;;1.60;0.80;;;;;;;;;;1844991;75;28564;-49
2022/02/12 13:48:44;;;;;;;0.55;0.55;;;;;;;;;;1854081;76;26928;-48
2022/02/12 13:51:15;;;;;;;0.90;0.60;;;;;;;;;;1863559;76;26369;-53
2022/02/12 13:53:46;;;;;;;0.88;0.88;;;;;;;;;;1860878;76;21680;-49
2022/02/12 13:56:13;;;;;;;0.93;0.80;;;;;;;;;;1861559;76;26265;-47
2022/02/12 13:58:42;;;;;;;1.60;0.90;;;;;;;;;;1860742;76;26335;-60
2022/02/12 14:01:09;;;;;;;0.72;0.65;;;;;;;;;;1858080;76;26273;-52
2022/02/12 14:03:40;;;;;;;1.85;0.68;;;;;;;;;;1861449;76;26269;-48
2022/02/12 14:06:11;;;;;;;0.80;0.80;;;;;;;;;;1854382;76;26394;-52
2022/02/12 14:08:39;;;;;;;0.85;0.70;;;;;;;;;;1855490;75;26877;-50
2022/02/12 14:11:07;;;;;;;2.75;0.90;;;;;;;;;;1855107;76;26306;-49
2022/02/12 14:13:34;;;;;;;1.75;0.68;;;;;;;;;;1861377;76;25817;-45
2022/02/12 14:16:01;;;;;;;0.62;0.62;;;;;;;;;;1862180;76;26638;-49
2022/02/12 14:18:29;;;;;;;0.70;0.70;;;;;;;;;;1859968;76;26276;-50
2022/02/12 14:20:57;;;;;;;1.05;0.70;;;;;;;;;;1857222;75;26225;-51
2022/02/12 14:23:24;;;;;;;1.35;0.80;;;;;;;;;;1864721;75;26253;-48
2022/02/12 14:25:51;;;;;;;0.72;0.70;;;;;;;;;;1856253;75;26314;-48
2022/02/12 14:28:18;;;;;;;2.37;0.70;;;;;;;;;;1857570;76;26327;-52
2022/02/12 14:30:46;;;;;;;0.82;0.60;;;;;;;;;;1860442;76;26358;-48
2022/02/12 14:33:14;;;;;;;2.42;0.70;;;;;;;;;;1862179;76;26779;-49
2022/02/12 14:35:42;;;;;;;1.50;0.80;;;;;;;;;;1864261;76;26352;-46
2022/02/12 14:38:09;;;;;;;0.60;0.60;;;;;;;;;;1865093;76;26935;-55
2022/02/12 14:40:37;;;;;;;2.22;0.65;;;;;;;;;;1856421;76;26271;-48
2022/02/12 14:43:04;;;;;;;2.30;0.72;;;;;;;;;;1862568;76;26799;-49
2022/02/12 14:45:33;;;;;;;1.75;0.90;;;;;;;;;;1861739;76;26946;-49
2022/02/12 14:48:00;;;;;;;0.62;0.60;;;;;;;;;;1860775;76;26279;-48
2022/02/12 14:50:28;;;;;;;1.20;0.80;;;;;;;;;;1863323;76;26670;-57
2022/02/12 14:52:55;;;;;;;0.60;0.60;;;;;;;;;;1863209;76;26317;-53
2022/02/12 14:55:23;;;;;;;0.95;0.57;;;;;;;;;;1860269;76;27179;-50
2022/02/12 14:57:50;;;;;;;4.85;0.60;;;;;;;;;;1864085;76;26261;-47